createdAt,value
2019-02-22T00:04:00.000Z,9.7
2019-02-22T00:09:00.000Z,9.7
2019-02-22T00:14:00.000Z,9.7
2019-02-22T00:19:00.000Z,9.7
2019-02-22T00:24:00.000Z,9.6
2019-02-22T00:29:00.000Z,9.6
2019-02-22T00:34:00.000Z,9.5
2019-02-22T00:39:00.000Z,9.4
2019-02-22T00:44:00.000Z,9.3
2019-02-22T00:49:00.000Z,9.2
2019-02-22T00:54:00.000Z,9.1
2019-02-22T00:59:00.000Z,9.0
2019-02-22T01:04:00.000Z,8.9
2019-02-22T01:09:00.000Z,8.9
2019-02-22T01:14:00.000Z,8.9
2019-02-22T01:20:00.000Z,8.8
2019-02-22T01:25:00.000Z,8.8
2019-02-22T01:30:00.000Z,8.8
2019-02-22T01:35:00.000Z,8.8
2019-02-22T01:40:00.000Z,8.8
2019-02-22T01:45:00.000Z,8.8
2019-02-22T01:50:00.000Z,8.8
2019-02-22T01:55:00.000Z,8.8
2019-02-22T02:00:00.000Z,8.8
2019-02-22T02:05:00.000Z,8.8
2019-02-22T02:10:00.000Z,8.7
2019-02-22T02:15:00.000Z,8.7
2019-02-22T02:20:00.000Z,8.7
2019-02-22T02:25:00.000Z,8.7
2019-02-22T02:30:00.000Z,8.7
2019-02-22T02:35:00.000Z,8.7
2019-02-22T02:40:00.000Z,8.6
2019-02-22T02:45:00.000Z,8.6
2019-02-22T02:50:00.000Z,8.6
2019-02-22T02:55:00.000Z,8.5
2019-02-22T03:00:00.000Z,8.5
2019-02-22T03:05:00.000Z,8.5
2019-02-22T03:10:00.000Z,8.4
2019-02-22T03:15:00.000Z,8.4
2019-02-22T03:20:00.000Z,8.3
2019-02-22T03:25:00.000Z,8.3
2019-02-22T03:30:00.000Z,8.2
2019-02-22T03:35:00.000Z,8.2
2019-02-22T03:40:00.000Z,8.2
2019-02-22T03:45:00.000Z,8.1
2019-02-22T03:50:00.000Z,8.1
2019-02-22T03:55:00.000Z,8.0
2019-02-22T04:00:00.000Z,8.0
2019-02-22T04:05:00.000Z,8.0
2019-02-22T04:10:00.000Z,7.9
2019-02-22T04:15:00.000Z,7.9
2019-02-22T04:20:00.000Z,7.9
2019-02-22T04:25:00.000Z,7.8
2019-02-22T04:30:00.000Z,7.8
2019-02-22T04:35:00.000Z,7.8
2019-02-22T04:40:00.000Z,7.8
2019-02-22T04:45:00.000Z,7.7
2019-02-22T04:50:00.000Z,7.7
2019-02-22T04:55:00.000Z,7.8
2019-02-22T05:00:00.000Z,7.8
2019-02-22T05:05:00.000Z,7.8
2019-02-22T05:10:00.000Z,7.8
2019-02-22T05:15:00.000Z,7.7
2019-02-22T05:20:00.000Z,7.7
2019-02-22T05:25:00.000Z,7.7
2019-02-22T05:30:00.000Z,7.7
2019-02-22T05:35:00.000Z,7.7
2019-02-22T05:40:00.000Z,7.8
2019-02-22T05:45:00.000Z,7.8
2019-02-22T05:50:00.000Z,7.8
2019-02-22T05:55:00.000Z,7.8
2019-02-22T06:00:00.000Z,7.7
2019-02-22T06:05:00.000Z,7.7
2019-02-22T06:10:00.000Z,7.7
2019-02-22T06:15:00.000Z,7.8
2019-02-22T06:20:00.000Z,7.8
2019-02-22T06:25:00.000Z,7.8
2019-02-22T06:30:00.000Z,7.8
2019-02-22T06:35:00.000Z,7.8
2019-02-22T06:40:00.000Z,7.9
2019-02-22T06:45:00.000Z,7.9
2019-02-22T06:50:00.000Z,7.9
2019-02-22T06:55:00.000Z,8.0
2019-02-22T07:00:00.000Z,8.0
2019-02-22T07:05:00.000Z,8.1
2019-02-22T07:10:00.000Z,8.2
2019-02-22T07:15:00.000Z,8.2
2019-02-22T07:20:00.000Z,8.2
2019-02-22T07:25:00.000Z,8.3
2019-02-22T07:31:00.000Z,8.4
2019-02-22T07:36:00.000Z,8.4
2019-02-22T07:41:00.000Z,8.5
2019-02-22T07:46:00.000Z,8.5
2019-02-22T07:51:00.000Z,8.6
2019-02-22T07:56:00.000Z,8.6
2019-02-22T08:01:00.000Z,8.8
2019-02-22T08:06:00.000Z,8.9
2019-02-22T08:11:00.000Z,9.0
2019-02-22T08:16:00.000Z,9.1
2019-02-22T08:21:00.000Z,9.3
2019-02-22T08:26:00.000Z,9.4
2019-02-22T08:31:00.000Z,9.4
2019-02-22T08:36:00.000Z,9.5
2019-02-22T08:41:00.000Z,9.6
2019-02-22T08:46:00.000Z,9.8
2019-02-22T08:51:00.000Z,9.9
2019-02-22T08:56:00.000Z,9.9
2019-02-22T09:01:00.000Z,10.0
2019-02-22T09:06:00.000Z,10.0
2019-02-22T09:11:00.000Z,10.0
2019-02-22T09:16:00.000Z,10.3
2019-02-22T09:21:00.000Z,11.1
2019-02-22T09:26:00.000Z,11.7
2019-02-22T09:31:00.000Z,11.7
2019-02-22T09:36:00.000Z,11.4
2019-02-22T09:41:00.000Z,11.1
2019-02-22T09:46:00.000Z,11.0
2019-02-22T09:51:00.000Z,10.8
2019-02-22T09:56:00.000Z,10.8
2019-02-22T10:01:00.000Z,10.7
2019-02-22T10:06:00.000Z,10.6
2019-02-22T10:11:00.000Z,10.6
2019-02-22T10:16:00.000Z,10.5
2019-02-22T10:21:00.000Z,10.5
2019-02-22T10:26:00.000Z,10.5
2019-02-22T10:31:00.000Z,10.4
2019-02-22T10:36:00.000Z,10.3
2019-02-22T10:41:00.000Z,10.3
2019-02-22T10:46:00.000Z,10.2
2019-02-22T10:51:00.000Z,10.0
2019-02-22T10:56:00.000Z,9.9
2019-02-22T11:01:00.000Z,9.8
2019-02-22T11:06:00.000Z,10.0
2019-02-22T11:11:00.000Z,9.8
2019-02-22T11:16:00.000Z,9.4
2019-02-22T11:21:00.000Z,9.1
2019-02-22T11:26:00.000Z,9.3
2019-02-22T11:31:00.000Z,9.6
2019-02-22T11:36:00.000Z,9.2
2019-02-22T11:41:00.000Z,9.4
2019-02-22T11:46:00.000Z,9.7
2019-02-22T11:51:00.000Z,9.6
2019-02-22T11:56:00.000Z,9.3
2019-02-22T12:01:00.000Z,9.2
2019-02-22T12:06:00.000Z,9.1
2019-02-22T12:11:00.000Z,8.9
2019-02-22T12:17:00.000Z,8.6
2019-02-22T12:22:00.000Z,8.4
2019-02-22T12:27:00.000Z,8.3
2019-02-22T12:32:00.000Z,8.2
2019-02-22T12:37:00.000Z,8.0
2019-02-22T12:42:00.000Z,8.1
2019-02-22T12:47:00.000Z,8.3
2019-02-22T12:52:00.000Z,8.2
2019-02-22T12:57:00.000Z,8.4
2019-02-22T13:02:00.000Z,8.5
2019-02-22T13:07:00.000Z,8.5
2019-02-22T13:12:00.000Z,8.5
2019-02-22T13:17:00.000Z,8.1
2019-02-22T13:22:00.000Z,7.9
2019-02-22T13:27:00.000Z,7.6
2019-02-22T13:32:00.000Z,7.4
2019-02-22T13:37:00.000Z,7.4
2019-02-22T13:42:00.000Z,7.6
2019-02-22T13:47:00.000Z,7.6
2019-02-22T13:52:00.000Z,7.5
2019-02-22T13:57:00.000Z,7.4
2019-02-22T14:02:00.000Z,7.5
2019-02-22T14:07:00.000Z,7.7
2019-02-22T14:12:00.000Z,7.5
2019-02-22T14:17:00.000Z,7.2
2019-02-22T14:22:00.000Z,6.9
2019-02-22T14:27:00.000Z,6.7
2019-02-22T14:32:00.000Z,6.7
2019-02-22T14:37:00.000Z,6.5
2019-02-22T14:42:00.000Z,6.5
2019-02-22T14:47:00.000Z,6.4
2019-02-22T14:52:00.000Z,6.2
2019-02-22T14:57:00.000Z,5.9
2019-02-22T15:02:00.000Z,5.8
2019-02-22T15:07:00.000Z,5.7
2019-02-22T15:12:00.000Z,5.6
2019-02-22T15:17:00.000Z,5.7
2019-02-22T15:22:00.000Z,5.7
2019-02-22T15:27:00.000Z,5.6
2019-02-22T15:32:00.000Z,5.4
2019-02-22T15:37:00.000Z,5.4
2019-02-22T15:42:00.000Z,5.3
2019-02-22T15:47:00.000Z,5.2
2019-02-22T15:52:00.000Z,5.2
2019-02-22T15:57:00.000Z,5.1
2019-02-22T16:02:00.000Z,5.1
2019-02-22T16:07:00.000Z,5.1
2019-02-22T16:12:00.000Z,5.0
2019-02-22T16:17:00.000Z,4.9
2019-02-22T16:22:00.000Z,4.8
2019-02-22T16:27:00.000Z,4.8
2019-02-22T16:32:00.000Z,4.7
2019-02-22T16:37:00.000Z,4.6
2019-02-22T16:42:00.000Z,4.5
2019-02-22T16:47:00.000Z,4.5
2019-02-22T16:52:00.000Z,4.4
2019-02-22T16:57:00.000Z,4.3
2019-02-22T17:02:00.000Z,4.1
2019-02-22T17:07:00.000Z,4.0
2019-02-22T17:12:00.000Z,3.9
2019-02-22T17:18:00.000Z,3.8
2019-02-22T17:23:00.000Z,3.7
2019-02-22T17:28:00.000Z,3.7
2019-02-22T17:33:00.000Z,3.7
2019-02-22T17:38:00.000Z,3.6
2019-02-22T17:43:00.000Z,3.6
2019-02-22T17:48:00.000Z,3.5
2019-02-22T17:53:00.000Z,3.4
2019-02-22T17:58:00.000Z,3.3
2019-02-22T18:03:00.000Z,3.3
2019-02-22T18:08:00.000Z,3.2
2019-02-22T18:13:00.000Z,3.2
2019-02-22T18:18:00.000Z,3.1
2019-02-22T18:23:00.000Z,3.1
2019-02-22T18:28:00.000Z,3.0
2019-02-22T18:33:00.000Z,2.9
2019-02-22T18:38:00.000Z,2.9
2019-02-22T18:43:00.000Z,2.8
2019-02-22T18:48:00.000Z,2.7
2019-02-22T18:53:00.000Z,2.6
2019-02-22T18:58:00.000Z,2.6
2019-02-22T19:03:00.000Z,2.5
2019-02-22T19:08:00.000Z,2.5
2019-02-22T19:13:00.000Z,2.4
2019-02-22T19:18:00.000Z,2.4
2019-02-22T19:23:00.000Z,2.3
2019-02-22T19:28:00.000Z,2.3
2019-02-22T19:33:00.000Z,2.2
2019-02-22T19:38:00.000Z,2.2
2019-02-22T19:43:00.000Z,2.1
2019-02-22T19:48:00.000Z,2.1
2019-02-22T19:53:00.000Z,1.9
2019-02-22T19:58:00.000Z,1.8
2019-02-22T20:03:00.000Z,1.7
2019-02-22T20:08:00.000Z,1.6
2019-02-22T20:13:00.000Z,1.6
2019-02-22T20:18:00.000Z,1.5
2019-02-22T20:23:00.000Z,1.4
2019-02-22T20:28:00.000Z,1.4
2019-02-22T20:33:00.000Z,1.4
2019-02-22T20:38:00.000Z,1.4
2019-02-22T20:43:00.000Z,1.4
2019-02-22T20:48:00.000Z,1.3
2019-02-22T20:54:00.000Z,1.2
2019-02-22T20:59:00.000Z,1.2
2019-02-22T21:04:00.000Z,1.1
2019-02-22T21:09:00.000Z,1.0
2019-02-22T21:14:00.000Z,0.9
2019-02-22T21:19:00.000Z,0.8
2019-02-22T21:24:00.000Z,0.8
2019-02-22T21:29:00.000Z,0.8
2019-02-22T21:34:00.000Z,0.8
2019-02-22T21:39:00.000Z,0.7
2019-02-22T21:44:00.000Z,0.7
2019-02-22T21:49:00.000Z,0.6
2019-02-22T21:54:00.000Z,0.5
2019-02-22T21:59:00.000Z,0.4
2019-02-22T22:04:00.000Z,0.4
2019-02-22T22:09:00.000Z,0.3
2019-02-22T22:14:00.000Z,0.2
2019-02-22T22:19:00.000Z,0.2
2019-02-22T22:24:00.000Z,0.2
2019-02-22T22:29:00.000Z,0.2
2019-02-22T22:34:00.000Z,0.1
2019-02-22T22:39:00.000Z,0.0
2019-02-22T22:44:00.000Z,0.0
2019-02-22T22:49:00.000Z,0.0
2019-02-22T22:54:00.000Z,-0.1
2019-02-22T22:59:00.000Z,-0.1
2019-02-22T23:04:00.000Z,-0.1
2019-02-22T23:09:00.000Z,-0.2
2019-02-22T23:14:00.000Z,-0.2
2019-02-22T23:19:00.000Z,-0.2
2019-02-22T23:24:00.000Z,-0.3
2019-02-22T23:29:00.000Z,-0.4
2019-02-22T23:34:00.000Z,-0.5
2019-02-22T23:39:00.000Z,-0.6
2019-02-22T23:44:00.000Z,-0.7
2019-02-22T23:49:00.000Z,-0.7
2019-02-22T23:54:00.000Z,-0.8
2019-02-22T23:59:00.000Z,-0.8
